sensor_id;sensor_type;location;lat;lon;timestamp;P1;durP1;ratioP1;P2;durP2;ratioP2
12675;SDS011;63820;65.654;21.944;2023-04-25T00:00:28;3.10;;;1.10;;
12675;SDS011;63820;65.654;21.944;2023-04-25T00:03:13;3.97;;;1.13;;
12675;SDS011;63820;65.654;21.944;2023-04-25T00:06:00;3.53;;;1.83;;
12675;SDS011;63820;65.654;21.944;2023-04-25T00:08:47;1.10;;;1.00;;
12675;SDS011;63820;65.654;21.944;2023-04-25T00:11:32;2.33;;;1.10;;
12675;SDS011;63820;65.654;21.944;2023-04-25T00:14:16;1.90;;;1.30;;
12675;SDS011;63820;65.654;21.944;2023-04-25T00:17:01;2.13;;;1.37;;
12675;SDS011;63820;65.654;21.944;2023-04-25T00:19:50;2.27;;;1.17;;
12675;SDS011;63820;65.654;21.944;2023-04-25T00:22:34;1.30;;;1.03;;
12675;SDS011;63820;65.654;21.944;2023-04-25T00:25:20;3.37;;;1.10;;
12675;SDS011;63820;65.654;21.944;2023-04-25T00:28:04;1.77;;;1.13;;
12675;SDS011;63820;65.654;21.944;2023-04-25T00:30:48;2.47;;;1.13;;
12675;SDS011;63820;65.654;21.944;2023-04-25T00:33:32;1.83;;;1.27;;
12675;SDS011;63820;65.654;21.944;2023-04-25T00:36:16;1.20;;;1.00;;
12675;SDS011;63820;65.654;21.944;2023-04-25T00:39:01;1.63;;;1.10;;
12675;SDS011;63820;65.654;21.944;2023-04-25T00:41:48;3.03;;;1.20;;
12675;SDS011;63820;65.654;21.944;2023-04-25T00:44:32;1.30;;;1.00;;
12675;SDS011;63820;65.654;21.944;2023-04-25T00:47:17;2.40;;;1.27;;
12675;SDS011;63820;65.654;21.944;2023-04-25T00:50:01;2.03;;;1.10;;
12675;SDS011;63820;65.654;21.944;2023-04-25T00:52:45;1.40;;;1.00;;
12675;SDS011;63820;65.654;21.944;2023-04-25T00:55:29;3.23;;;1.30;;
12675;SDS011;63820;65.654;21.944;2023-04-25T00:58:15;1.43;;;0.93;;
12675;SDS011;63820;65.654;21.944;2023-04-25T01:00:59;1.60;;;1.00;;
12675;SDS011;63820;65.654;21.944;2023-04-25T01:03:44;1.53;;;0.90;;
12675;SDS011;63820;65.654;21.944;2023-04-25T01:06:30;2.70;;;1.10;;
12675;SDS011;63820;65.654;21.944;2023-04-25T01:09:15;2.37;;;1.50;;
12675;SDS011;63820;65.654;21.944;2023-04-25T01:11:59;2.60;;;1.10;;
12675;SDS011;63820;65.654;21.944;2023-04-25T01:14:44;1.20;;;0.97;;
12675;SDS011;63820;65.654;21.944;2023-04-25T01:17:29;1.90;;;1.10;;
12675;SDS011;63820;65.654;21.944;2023-04-25T01:20:14;2.47;;;1.03;;
12675;SDS011;63820;65.654;21.944;2023-04-25T01:22:59;1.80;;;1.20;;
12675;SDS011;63820;65.654;21.944;2023-04-25T01:25:44;1.97;;;1.00;;
12675;SDS011;63820;65.654;21.944;2023-04-25T01:28:29;1.90;;;1.00;;
12675;SDS011;63820;65.654;21.944;2023-04-25T01:31:13;1.87;;;1.27;;
12675;SDS011;63820;65.654;21.944;2023-04-25T01:33:58;3.03;;;1.40;;
12675;SDS011;63820;65.654;21.944;2023-04-25T01:36:42;3.67;;;1.30;;
12675;SDS011;63820;65.654;21.944;2023-04-25T01:39:27;1.43;;;1.10;;
12675;SDS011;63820;65.654;21.944;2023-04-25T01:42:11;1.73;;;1.00;;
12675;SDS011;63820;65.654;21.944;2023-04-25T01:44:56;1.90;;;1.20;;
12675;SDS011;63820;65.654;21.944;2023-04-25T01:47:41;1.60;;;0.90;;
12675;SDS011;63820;65.654;21.944;2023-04-25T01:50:27;2.57;;;1.00;;
12675;SDS011;63820;65.654;21.944;2023-04-25T01:53:11;3.00;;;1.30;;
12675;SDS011;63820;65.654;21.944;2023-04-25T01:55:58;2.77;;;1.23;;
12675;SDS011;63820;65.654;21.944;2023-04-25T01:58:42;3.17;;;1.10;;
12675;SDS011;63820;65.654;21.944;2023-04-25T02:01:26;1.73;;;1.03;;
12675;SDS011;63820;65.654;21.944;2023-04-25T02:04:10;2.57;;;1.20;;
12675;SDS011;63820;65.654;21.944;2023-04-25T02:06:53;3.50;;;1.40;;
12675;SDS011;63820;65.654;21.944;2023-04-25T02:09:37;2.37;;;1.40;;
12675;SDS011;63820;65.654;21.944;2023-04-25T02:12:21;2.00;;;1.00;;
12675;SDS011;63820;65.654;21.944;2023-04-25T02:15:05;1.30;;;1.00;;
12675;SDS011;63820;65.654;21.944;2023-04-25T02:17:50;3.47;;;1.30;;
12675;SDS011;63820;65.654;21.944;2023-04-25T02:20:36;3.93;;;1.40;;
12675;SDS011;63820;65.654;21.944;2023-04-25T02:23:20;2.13;;;1.40;;
12675;SDS011;63820;65.654;21.944;2023-04-25T02:26:04;1.60;;;0.97;;
12675;SDS011;63820;65.654;21.944;2023-04-25T02:28:49;1.60;;;1.10;;
12675;SDS011;63820;65.654;21.944;2023-04-25T02:31:33;1.57;;;1.20;;
12675;SDS011;63820;65.654;21.944;2023-04-25T02:34:17;2.70;;;1.13;;
12675;SDS011;63820;65.654;21.944;2023-04-25T02:37:02;1.77;;;1.07;;
12675;SDS011;63820;65.654;21.944;2023-04-25T02:39:46;1.60;;;0.87;;
12675;SDS011;63820;65.654;21.944;2023-04-25T02:42:30;1.40;;;0.83;;
12675;SDS011;63820;65.654;21.944;2023-04-25T02:45:14;3.43;;;1.03;;
12675;SDS011;63820;65.654;21.944;2023-04-25T02:47:58;2.63;;;1.00;;
12675;SDS011;63820;65.654;21.944;2023-04-25T02:50:42;1.60;;;0.80;;
12675;SDS011;63820;65.654;21.944;2023-04-25T02:53:27;3.27;;;1.00;;
12675;SDS011;63820;65.654;21.944;2023-04-25T02:56:11;1.27;;;0.83;;
12675;SDS011;63820;65.654;21.944;2023-04-25T02:58:55;0.87;;;0.87;;
12675;SDS011;63820;65.654;21.944;2023-04-25T03:01:39;2.90;;;1.10;;
12675;SDS011;63820;65.654;21.944;2023-04-25T03:04:23;1.43;;;0.90;;
12675;SDS011;63820;65.654;21.944;2023-04-25T03:07:07;1.43;;;1.10;;
12675;SDS011;63820;65.654;21.944;2023-04-25T03:09:52;1.13;;;0.80;;
12675;SDS011;63820;65.654;21.944;2023-04-25T03:12:36;1.13;;;0.83;;
12675;SDS011;63820;65.654;21.944;2023-04-25T03:15:20;2.53;;;1.07;;
12675;SDS011;63820;65.654;21.944;2023-04-25T03:18:04;1.90;;;0.80;;
12675;SDS011;63820;65.654;21.944;2023-04-25T03:20:48;1.43;;;0.80;;
12675;SDS011;63820;65.654;21.944;2023-04-25T03:23:33;1.50;;;0.73;;
12675;SDS011;63820;65.654;21.944;2023-04-25T03:26:17;0.97;;;0.70;;
12675;SDS011;63820;65.654;21.944;2023-04-25T03:29:02;1.87;;;0.83;;
12675;SDS011;63820;65.654;21.944;2023-04-25T03:31:46;2.63;;;0.70;;
12675;SDS011;63820;65.654;21.944;2023-04-25T03:34:30;0.70;;;0.70;;
12675;SDS011;63820;65.654;21.944;2023-04-25T03:37:14;1.50;;;0.80;;
12675;SDS011;63820;65.654;21.944;2023-04-25T03:39:58;1.13;;;0.80;;
12675;SDS011;63820;65.654;21.944;2023-04-25T03:42:42;1.37;;;1.00;;
12675;SDS011;63820;65.654;21.944;2023-04-25T03:45:27;1.20;;;0.80;;
12675;SDS011;63820;65.654;21.944;2023-04-25T03:48:11;1.37;;;0.73;;
12675;SDS011;63820;65.654;21.944;2023-04-25T03:50:55;1.30;;;0.90;;
12675;SDS011;63820;65.654;21.944;2023-04-25T03:53:39;1.17;;;0.90;;
12675;SDS011;63820;65.654;21.944;2023-04-25T03:56:23;2.80;;;0.73;;
12675;SDS011;63820;65.654;21.944;2023-04-25T03:59:07;0.70;;;0.70;;
12675;SDS011;63820;65.654;21.944;2023-04-25T04:01:52;1.27;;;0.80;;
12675;SDS011;63820;65.654;21.944;2023-04-25T04:04:36;1.87;;;0.70;;
12675;SDS011;63820;65.654;21.944;2023-04-25T04:07:21;0.90;;;0.70;;
12675;SDS011;63820;65.654;21.944;2023-04-25T04:10:06;1.40;;;1.00;;
12675;SDS011;63820;65.654;21.944;2023-04-25T04:12:51;1.00;;;0.77;;
12675;SDS011;63820;65.654;21.944;2023-04-25T04:15:35;1.67;;;0.80;;
12675;SDS011;63820;65.654;21.944;2023-04-25T04:18:19;2.70;;;0.67;;
12675;SDS011;63820;65.654;21.944;2023-04-25T04:21:03;2.77;;;0.90;;
12675;SDS011;63820;65.654;21.944;2023-04-25T04:23:48;0.70;;;0.70;;
12675;SDS011;63820;65.654;21.944;2023-04-25T04:26:32;1.00;;;0.80;;
12675;SDS011;63820;65.654;21.944;2023-04-25T04:29:18;4.67;;;1.00;;
12675;SDS011;63820;65.654;21.944;2023-04-25T04:32:04;1.03;;;0.73;;
12675;SDS011;63820;65.654;21.944;2023-04-25T04:34:48;2.57;;;0.87;;
12675;SDS011;63820;65.654;21.944;2023-04-25T04:37:33;3.23;;;0.90;;
12675;SDS011;63820;65.654;21.944;2023-04-25T04:40:17;0.77;;;0.70;;
12675;SDS011;63820;65.654;21.944;2023-04-25T04:43:00;1.10;;;0.70;;
12675;SDS011;63820;65.654;21.944;2023-04-25T04:45:45;1.50;;;0.73;;
12675;SDS011;63820;65.654;21.944;2023-04-25T04:48:29;0.70;;;0.60;;
12675;SDS011;63820;65.654;21.944;2023-04-25T04:51:16;1.30;;;0.90;;
12675;SDS011;63820;65.654;21.944;2023-04-25T04:54:00;1.10;;;0.80;;
12675;SDS011;63820;65.654;21.944;2023-04-25T04:56:45;1.23;;;0.70;;
12675;SDS011;63820;65.654;21.944;2023-04-25T04:59:29;1.03;;;0.90;;
12675;SDS011;63820;65.654;21.944;2023-04-25T05:02:14;1.03;;;0.80;;
12675;SDS011;63820;65.654;21.944;2023-04-25T05:04:58;1.37;;;0.77;;
12675;SDS011;63820;65.654;21.944;2023-04-25T05:07:42;0.70;;;0.70;;
12675;SDS011;63820;65.654;21.944;2023-04-25T05:10:26;2.33;;;0.50;;
12675;SDS011;63820;65.654;21.944;2023-04-25T05:13:10;1.40;;;0.77;;
12675;SDS011;63820;65.654;21.944;2023-04-25T05:15:54;1.53;;;0.80;;
12675;SDS011;63820;65.654;21.944;2023-04-25T05:18:39;3.63;;;0.80;;
12675;SDS011;63820;65.654;21.944;2023-04-25T05:21:23;3.87;;;0.90;;
12675;SDS011;63820;65.654;21.944;2023-04-25T05:24:07;2.10;;;1.00;;
12675;SDS011;63820;65.654;21.944;2023-04-25T05:26:51;1.83;;;0.90;;
12675;SDS011;63820;65.654;21.944;2023-04-25T05:29:35;3.27;;;0.80;;
12675;SDS011;63820;65.654;21.944;2023-04-25T05:32:19;3.80;;;1.13;;
12675;SDS011;63820;65.654;21.944;2023-04-25T05:35:03;4.40;;;0.70;;
12675;SDS011;63820;65.654;21.944;2023-04-25T05:37:50;2.23;;;1.00;;
12675;SDS011;63820;65.654;21.944;2023-04-25T05:40:34;2.60;;;1.03;;
12675;SDS011;63820;65.654;21.944;2023-04-25T05:43:18;4.20;;;1.00;;
12675;SDS011;63820;65.654;21.944;2023-04-25T05:46:02;5.07;;;0.90;;
12675;SDS011;63820;65.654;21.944;2023-04-25T05:48:47;2.93;;;0.97;;
12675;SDS011;63820;65.654;21.944;2023-04-25T05:51:31;3.87;;;0.70;;
12675;SDS011;63820;65.654;21.944;2023-04-25T05:54:15;1.43;;;0.70;;
12675;SDS011;63820;65.654;21.944;2023-04-25T05:56:59;2.03;;;0.90;;
12675;SDS011;63820;65.654;21.944;2023-04-25T05:59:43;2.00;;;1.20;;
12675;SDS011;63820;65.654;21.944;2023-04-25T06:02:27;2.27;;;0.73;;
12675;SDS011;63820;65.654;21.944;2023-04-25T06:05:11;1.57;;;0.70;;
12675;SDS011;63820;65.654;21.944;2023-04-25T06:07:55;1.50;;;0.93;;
12675;SDS011;63820;65.654;21.944;2023-04-25T06:10:39;1.73;;;0.80;;
12675;SDS011;63820;65.654;21.944;2023-04-25T06:13:24;0.80;;;0.80;;
12675;SDS011;63820;65.654;21.944;2023-04-25T06:16:08;2.57;;;0.90;;
12675;SDS011;63820;65.654;21.944;2023-04-25T06:18:52;1.30;;;0.60;;
12675;SDS011;63820;65.654;21.944;2023-04-25T06:21:36;2.90;;;0.80;;
12675;SDS011;63820;65.654;21.944;2023-04-25T06:24:20;2.23;;;1.00;;
12675;SDS011;63820;65.654;21.944;2023-04-25T06:27:04;7.00;;;1.10;;
12675;SDS011;63820;65.654;21.944;2023-04-25T06:29:48;1.63;;;0.97;;
12675;SDS011;63820;65.654;21.944;2023-04-25T06:32:32;2.37;;;1.00;;
12675;SDS011;63820;65.654;21.944;2023-04-25T06:35:18;3.10;;;0.90;;
12675;SDS011;63820;65.654;21.944;2023-04-25T06:38:02;1.40;;;0.87;;
12675;SDS011;63820;65.654;21.944;2023-04-25T06:40:46;3.37;;;0.80;;
12675;SDS011;63820;65.654;21.944;2023-04-25T06:43:31;1.37;;;0.90;;
12675;SDS011;63820;65.654;21.944;2023-04-25T06:46:17;1.50;;;1.00;;
12675;SDS011;63820;65.654;21.944;2023-04-25T06:49:01;1.33;;;0.90;;
12675;SDS011;63820;65.654;21.944;2023-04-25T06:51:45;3.73;;;1.00;;
12675;SDS011;63820;65.654;21.944;2023-04-25T06:54:29;4.07;;;0.93;;
12675;SDS011;63820;65.654;21.944;2023-04-25T06:57:14;1.33;;;0.80;;
12675;SDS011;63820;65.654;21.944;2023-04-25T06:59:58;4.03;;;1.07;;
12675;SDS011;63820;65.654;21.944;2023-04-25T07:02:43;1.90;;;0.70;;
12675;SDS011;63820;65.654;21.944;2023-04-25T07:05:27;1.90;;;0.90;;
12675;SDS011;63820;65.654;21.944;2023-04-25T07:08:11;2.07;;;1.10;;
12675;SDS011;63820;65.654;21.944;2023-04-25T07:10:56;2.87;;;0.80;;
12675;SDS011;63820;65.654;21.944;2023-04-25T07:13:40;1.07;;;0.77;;
12675;SDS011;63820;65.654;21.944;2023-04-25T07:16:24;2.10;;;0.90;;
12675;SDS011;63820;65.654;21.944;2023-04-25T07:19:08;0.83;;;0.80;;
12675;SDS011;63820;65.654;21.944;2023-04-25T07:21:52;1.27;;;0.80;;
12675;SDS011;63820;65.654;21.944;2023-04-25T07:24:36;2.37;;;0.80;;
12675;SDS011;63820;65.654;21.944;2023-04-25T07:27:20;0.93;;;0.83;;
12675;SDS011;63820;65.654;21.944;2023-04-25T07:30:05;2.40;;;1.00;;
12675;SDS011;63820;65.654;21.944;2023-04-25T07:32:50;4.27;;;0.97;;
12675;SDS011;63820;65.654;21.944;2023-04-25T07:35:34;0.93;;;0.80;;
12675;SDS011;63820;65.654;21.944;2023-04-25T07:38:18;1.13;;;0.73;;
12675;SDS011;63820;65.654;21.944;2023-04-25T07:41:03;1.00;;;0.90;;
12675;SDS011;63820;65.654;21.944;2023-04-25T07:43:47;2.40;;;0.90;;
12675;SDS011;63820;65.654;21.944;2023-04-25T07:46:31;4.50;;;1.10;;
12675;SDS011;63820;65.654;21.944;2023-04-25T07:49:15;1.43;;;1.00;;
12675;SDS011;63820;65.654;21.944;2023-04-25T07:51:59;1.00;;;0.90;;
12675;SDS011;63820;65.654;21.944;2023-04-25T07:54:43;1.53;;;0.93;;
12675;SDS011;63820;65.654;21.944;2023-04-25T07:57:27;2.73;;;1.17;;
12675;SDS011;63820;65.654;21.944;2023-04-25T08:00:11;1.23;;;0.87;;
12675;SDS011;63820;65.654;21.944;2023-04-25T08:02:56;1.93;;;1.00;;
12675;SDS011;63820;65.654;21.944;2023-04-25T08:05:40;2.60;;;1.10;;
12675;SDS011;63820;65.654;21.944;2023-04-25T08:08:24;1.47;;;1.00;;
12675;SDS011;63820;65.654;21.944;2023-04-25T08:11:09;1.40;;;1.20;;
12675;SDS011;63820;65.654;21.944;2023-04-25T08:13:54;1.93;;;1.40;;
12675;SDS011;63820;65.654;21.944;2023-04-25T08:16:39;1.40;;;1.30;;
12675;SDS011;63820;65.654;21.944;2023-04-25T08:19:23;5.00;;;1.20;;
12675;SDS011;63820;65.654;21.944;2023-04-25T08:22:08;4.67;;;1.20;;
12675;SDS011;63820;65.654;21.944;2023-04-25T08:24:52;2.17;;;1.60;;
12675;SDS011;63820;65.654;21.944;2023-04-25T08:27:36;1.50;;;1.30;;
12675;SDS011;63820;65.654;21.944;2023-04-25T08:30:20;2.33;;;1.57;;
12675;SDS011;63820;65.654;21.944;2023-04-25T08:33:04;1.13;;;1.03;;
12675;SDS011;63820;65.654;21.944;2023-04-25T08:35:49;1.70;;;1.40;;
12675;SDS011;63820;65.654;21.944;2023-04-25T08:38:33;2.43;;;1.60;;
12675;SDS011;63820;65.654;21.944;2023-04-25T08:41:17;2.83;;;2.10;;
12675;SDS011;63820;65.654;21.944;2023-04-25T08:44:04;3.10;;;1.37;;
12675;SDS011;63820;65.654;21.944;2023-04-25T08:46:51;1.57;;;1.30;;
12675;SDS011;63820;65.654;21.944;2023-04-25T08:49:35;2.30;;;1.27;;
12675;SDS011;63820;65.654;21.944;2023-04-25T08:52:22;1.40;;;1.27;;
12675;SDS011;63820;65.654;21.944;2023-04-25T08:55:08;1.30;;;1.10;;
12675;SDS011;63820;65.654;21.944;2023-04-25T08:57:53;2.00;;;1.30;;
12675;SDS011;63820;65.654;21.944;2023-04-25T09:00:39;1.27;;;1.13;;
12675;SDS011;63820;65.654;21.944;2023-04-25T09:03:23;1.20;;;1.10;;
12675;SDS011;63820;65.654;21.944;2023-04-25T09:06:07;2.80;;;1.27;;
12675;SDS011;63820;65.654;21.944;2023-04-25T09:08:54;1.07;;;0.90;;
12675;SDS011;63820;65.654;21.944;2023-04-25T09:11:38;1.70;;;1.40;;
12675;SDS011;63820;65.654;21.944;2023-04-25T09:14:24;2.70;;;1.30;;
12675;SDS011;63820;65.654;21.944;2023-04-25T09:17:09;2.80;;;1.20;;
12675;SDS011;63820;65.654;21.944;2023-04-25T09:19:53;1.40;;;1.30;;
12675;SDS011;63820;65.654;21.944;2023-04-25T09:22:38;1.33;;;1.23;;
12675;SDS011;63820;65.654;21.944;2023-04-25T09:25:22;1.17;;;1.07;;
12675;SDS011;63820;65.654;21.944;2023-04-25T09:28:09;2.27;;;1.27;;
12675;SDS011;63820;65.654;21.944;2023-04-25T09:30:56;2.07;;;1.33;;
12675;SDS011;63820;65.654;21.944;2023-04-25T09:33:41;2.13;;;1.20;;
12675;SDS011;63820;65.654;21.944;2023-04-25T09:36:25;8.87;;;1.93;;
12675;SDS011;63820;65.654;21.944;2023-04-25T09:39:14;1.23;;;1.13;;
12675;SDS011;63820;65.654;21.944;2023-04-25T09:42:03;1.73;;;1.13;;
12675;SDS011;63820;65.654;21.944;2023-04-25T09:44:49;1.50;;;1.03;;
12675;SDS011;63820;65.654;21.944;2023-04-25T09:47:36;2.53;;;1.40;;
12675;SDS011;63820;65.654;21.944;2023-04-25T09:50:21;2.97;;;1.23;;
12675;SDS011;63820;65.654;21.944;2023-04-25T09:53:08;1.30;;;1.20;;
12675;SDS011;63820;65.654;21.944;2023-04-25T09:55:52;1.60;;;1.00;;
12675;SDS011;63820;65.654;21.944;2023-04-25T09:58:37;2.50;;;1.30;;
12675;SDS011;63820;65.654;21.944;2023-04-25T10:01:23;1.53;;;0.97;;
12675;SDS011;63820;65.654;21.944;2023-04-25T10:04:10;1.93;;;1.00;;
12675;SDS011;63820;65.654;21.944;2023-04-25T10:06:55;2.57;;;1.30;;
12675;SDS011;63820;65.654;21.944;2023-04-25T10:09:40;1.37;;;1.27;;
12675;SDS011;63820;65.654;21.944;2023-04-25T10:12:26;2.17;;;1.30;;
12675;SDS011;63820;65.654;21.944;2023-04-25T10:15:10;1.10;;;0.90;;
12675;SDS011;63820;65.654;21.944;2023-04-25T10:17:56;1.40;;;1.30;;
12675;SDS011;63820;65.654;21.944;2023-04-25T10:20:40;1.83;;;1.23;;
12675;SDS011;63820;65.654;21.944;2023-04-25T10:23:24;2.03;;;1.10;;
12675;SDS011;63820;65.654;21.944;2023-04-25T10:26:09;1.70;;;1.27;;
12675;SDS011;63820;65.654;21.944;2023-04-25T10:29:00;2.07;;;1.40;;
12675;SDS011;63820;65.654;21.944;2023-04-25T10:31:46;1.97;;;1.10;;
12675;SDS011;63820;65.654;21.944;2023-04-25T10:34:41;1.30;;;1.20;;
12675;SDS011;63820;65.654;21.944;2023-04-25T10:37:32;3.77;;;1.70;;
12675;SDS011;63820;65.654;21.944;2023-04-25T10:40:16;5.00;;;1.70;;
12675;SDS011;63820;65.654;21.944;2023-04-25T10:49:09;1.27;;;1.00;;
12675;SDS011;63820;65.654;21.944;2023-04-25T10:52:10;1.50;;;1.20;;
12675;SDS011;63820;65.654;21.944;2023-04-25T10:55:06;2.00;;;1.40;;
12675;SDS011;63820;65.654;21.944;2023-04-25T10:57:51;2.30;;;1.20;;
12675;SDS011;63820;65.654;21.944;2023-04-25T11:00:35;2.40;;;1.27;;
12675;SDS011;63820;65.654;21.944;2023-04-25T11:03:23;2.13;;;1.40;;
12675;SDS011;63820;65.654;21.944;2023-04-25T11:06:22;1.40;;;1.30;;
12675;SDS011;63820;65.654;21.944;2023-04-25T11:09:12;1.67;;;1.40;;
12675;SDS011;63820;65.654;21.944;2023-04-25T11:11:58;2.80;;;1.33;;
12675;SDS011;63820;65.654;21.944;2023-04-25T11:14:43;1.90;;;1.20;;
12675;SDS011;63820;65.654;21.944;2023-04-25T11:17:27;2.20;;;1.30;;
12675;SDS011;63820;65.654;21.944;2023-04-25T11:20:12;2.10;;;1.50;;
12675;SDS011;63820;65.654;21.944;2023-04-25T11:22:58;2.50;;;1.20;;
12675;SDS011;63820;65.654;21.944;2023-04-25T11:25:45;4.03;;;1.50;;
12675;SDS011;63820;65.654;21.944;2023-04-25T11:28:29;1.93;;;1.30;;
12675;SDS011;63820;65.654;21.944;2023-04-25T11:31:14;1.33;;;1.13;;
12675;SDS011;63820;65.654;21.944;2023-04-25T11:33:58;1.50;;;1.10;;
12675;SDS011;63820;65.654;21.944;2023-04-25T11:36:42;1.87;;;1.30;;
12675;SDS011;63820;65.654;21.944;2023-04-25T11:39:27;1.77;;;1.40;;
12675;SDS011;63820;65.654;21.944;2023-04-25T11:42:12;1.97;;;1.47;;
12675;SDS011;63820;65.654;21.944;2023-04-25T11:44:56;1.50;;;1.40;;
12675;SDS011;63820;65.654;21.944;2023-04-25T11:47:40;2.10;;;1.40;;
12675;SDS011;63820;65.654;21.944;2023-04-25T11:50:24;1.60;;;1.50;;
12675;SDS011;63820;65.654;21.944;2023-04-25T11:53:12;1.90;;;1.20;;
12675;SDS011;63820;65.654;21.944;2023-04-25T11:55:56;2.80;;;1.50;;
12675;SDS011;63820;65.654;21.944;2023-04-25T11:58:57;1.63;;;1.27;;
12675;SDS011;63820;65.654;21.944;2023-04-25T12:01:49;2.60;;;1.23;;
12675;SDS011;63820;65.654;21.944;2023-04-25T12:04:34;1.30;;;1.03;;
12675;SDS011;63820;65.654;21.944;2023-04-25T12:07:18;2.43;;;1.33;;
12675;SDS011;63820;65.654;21.944;2023-04-25T12:10:09;2.00;;;1.20;;
12675;SDS011;63820;65.654;21.944;2023-04-25T12:12:55;1.40;;;1.30;;
12675;SDS011;63820;65.654;21.944;2023-04-25T12:15:40;3.20;;;1.30;;
12675;SDS011;63820;65.654;21.944;2023-04-25T12:18:24;1.83;;;1.30;;
12675;SDS011;63820;65.654;21.944;2023-04-25T12:21:11;1.98;;;1.40;;
12675;SDS011;63820;65.654;21.944;2023-04-25T12:23:55;1.37;;;1.10;;
12675;SDS011;63820;65.654;21.944;2023-04-25T12:29:54;2.20;;;1.10;;
12675;SDS011;63820;65.654;21.944;2023-04-25T12:32:40;3.40;;;1.27;;
12675;SDS011;63820;65.654;21.944;2023-04-25T12:35:24;2.03;;;1.10;;
12675;SDS011;63820;65.654;21.944;2023-04-25T12:38:09;2.10;;;1.00;;
12675;SDS011;63820;65.654;21.944;2023-04-25T12:40:53;1.20;;;1.10;;
12675;SDS011;63820;65.654;21.944;2023-04-25T12:43:37;1.83;;;1.10;;
12675;SDS011;63820;65.654;21.944;2023-04-25T12:46:22;1.03;;;0.90;;
12675;SDS011;63820;65.654;21.944;2023-04-25T12:49:09;1.47;;;1.20;;
12675;SDS011;63820;65.654;21.944;2023-04-25T12:51:52;1.67;;;1.30;;
12675;SDS011;63820;65.654;21.944;2023-04-25T12:54:37;1.30;;;1.20;;
12675;SDS011;63820;65.654;21.944;2023-04-25T12:57:22;2.20;;;1.03;;
12675;SDS011;63820;65.654;21.944;2023-04-25T13:00:06;1.53;;;1.03;;
12675;SDS011;63820;65.654;21.944;2023-04-25T13:02:58;1.43;;;1.10;;
12675;SDS011;63820;65.654;21.944;2023-04-25T13:05:42;1.43;;;1.20;;
12675;SDS011;63820;65.654;21.944;2023-04-25T13:08:26;1.67;;;1.20;;
12675;SDS011;63820;65.654;21.944;2023-04-25T13:11:10;1.67;;;1.17;;
12675;SDS011;63820;65.654;21.944;2023-04-25T13:13:55;2.40;;;1.93;;
12675;SDS011;63820;65.654;21.944;2023-04-25T13:16:39;5.53;;;1.67;;
12675;SDS011;63820;65.654;21.944;2023-04-25T13:19:24;2.23;;;1.30;;
12675;SDS011;63820;65.654;21.944;2023-04-25T13:22:09;1.93;;;1.17;;
12675;SDS011;63820;65.654;21.944;2023-04-25T13:24:53;1.10;;;1.00;;
12675;SDS011;63820;65.654;21.944;2023-04-25T13:27:38;2.97;;;1.10;;
12675;SDS011;63820;65.654;21.944;2023-04-25T13:30:24;1.10;;;1.00;;
12675;SDS011;63820;65.654;21.944;2023-04-25T13:33:08;1.93;;;1.10;;
12675;SDS011;63820;65.654;21.944;2023-04-25T13:35:54;1.43;;;1.20;;
12675;SDS011;63820;65.654;21.944;2023-04-25T13:38:40;2.90;;;1.33;;
12675;SDS011;63820;65.654;21.944;2023-04-25T13:41:27;1.97;;;1.40;;
12675;SDS011;63820;65.654;21.944;2023-04-25T13:44:11;1.30;;;0.87;;
12675;SDS011;63820;65.654;21.944;2023-04-25T13:46:54;2.10;;;1.23;;
12675;SDS011;63820;65.654;21.944;2023-04-25T13:49:39;1.40;;;1.13;;
12675;SDS011;63820;65.654;21.944;2023-04-25T13:52:23;1.50;;;1.07;;
12675;SDS011;63820;65.654;21.944;2023-04-25T13:55:09;2.03;;;1.33;;
12675;SDS011;63820;65.654;21.944;2023-04-25T13:57:53;2.47;;;1.07;;
12675;SDS011;63820;65.654;21.944;2023-04-25T14:00:38;3.07;;;0.97;;
12675;SDS011;63820;65.654;21.944;2023-04-25T14:03:23;3.33;;;1.10;;
12675;SDS011;63820;65.654;21.944;2023-04-25T14:06:08;2.40;;;1.00;;
12675;SDS011;63820;65.654;21.944;2023-04-25T14:08:53;1.90;;;0.90;;
12675;SDS011;63820;65.654;21.944;2023-04-25T14:11:37;0.90;;;0.70;;
12675;SDS011;63820;65.654;21.944;2023-04-25T14:14:22;3.47;;;1.10;;
12675;SDS011;63820;65.654;21.944;2023-04-25T14:17:08;2.77;;;1.27;;
12675;SDS011;63820;65.654;21.944;2023-04-25T14:19:52;4.37;;;1.13;;
12675;SDS011;63820;65.654;21.944;2023-04-25T14:22:36;1.07;;;0.83;;
12675;SDS011;63820;65.654;21.944;2023-04-25T14:25:25;2.00;;;1.10;;
12675;SDS011;63820;65.654;21.944;2023-04-25T14:28:09;1.07;;;0.83;;
12675;SDS011;63820;65.654;21.944;2023-04-25T14:30:53;1.57;;;1.13;;
12675;SDS011;63820;65.654;21.944;2023-04-25T14:33:37;1.30;;;0.90;;
12675;SDS011;63820;65.654;21.944;2023-04-25T14:36:25;1.10;;;1.00;;
12675;SDS011;63820;65.654;21.944;2023-04-25T14:39:12;2.30;;;1.00;;
12675;SDS011;63820;65.654;21.944;2023-04-25T14:41:57;2.93;;;0.90;;
12675;SDS011;63820;65.654;21.944;2023-04-25T14:44:41;3.10;;;0.70;;
12675;SDS011;63820;65.654;21.944;2023-04-25T14:47:25;2.27;;;1.13;;
12675;SDS011;63820;65.654;21.944;2023-04-25T14:50:10;1.97;;;0.90;;
12675;SDS011;63820;65.654;21.944;2023-04-25T14:52:54;0.80;;;0.80;;
12675;SDS011;63820;65.654;21.944;2023-04-25T14:55:42;2.27;;;0.90;;
12675;SDS011;63820;65.654;21.944;2023-04-25T14:58:27;3.17;;;1.10;;
12675;SDS011;63820;65.654;21.944;2023-04-25T15:01:11;1.90;;;1.20;;
12675;SDS011;63820;65.654;21.944;2023-04-25T15:03:56;1.60;;;1.20;;
12675;SDS011;63820;65.654;21.944;2023-04-25T15:06:41;1.40;;;1.20;;
12675;SDS011;63820;65.654;21.944;2023-04-25T15:09:25;2.50;;;1.27;;
12675;SDS011;63820;65.654;21.944;2023-04-25T15:12:09;1.70;;;1.50;;
12675;SDS011;63820;65.654;21.944;2023-04-25T15:14:53;1.23;;;1.13;;
12675;SDS011;63820;65.654;21.944;2023-04-25T15:17:41;2.00;;;1.30;;
12675;SDS011;63820;65.654;21.944;2023-04-25T15:20:25;1.90;;;1.30;;
12675;SDS011;63820;65.654;21.944;2023-04-25T15:23:11;3.27;;;1.50;;
12675;SDS011;63820;65.654;21.944;2023-04-25T15:25:55;2.50;;;1.30;;
12675;SDS011;63820;65.654;21.944;2023-04-25T15:28:39;1.47;;;1.23;;
12675;SDS011;63820;65.654;21.944;2023-04-25T15:31:23;1.40;;;1.30;;
12675;SDS011;63820;65.654;21.944;2023-04-25T15:34:07;2.47;;;1.50;;
12675;SDS011;63820;65.654;21.944;2023-04-25T15:36:50;2.10;;;1.60;;
12675;SDS011;63820;65.654;21.944;2023-04-25T15:39:34;2.50;;;1.37;;
12675;SDS011;63820;65.654;21.944;2023-04-25T15:42:19;2.20;;;1.27;;
12675;SDS011;63820;65.654;21.944;2023-04-25T15:45:04;2.10;;;1.60;;
12675;SDS011;63820;65.654;21.944;2023-04-25T15:47:50;2.20;;;1.30;;
12675;SDS011;63820;65.654;21.944;2023-04-25T15:50:35;1.43;;;1.30;;
12675;SDS011;63820;65.654;21.944;2023-04-25T15:53:19;1.93;;;1.53;;
12675;SDS011;63820;65.654;21.944;2023-04-25T15:56:03;2.50;;;1.50;;
12675;SDS011;63820;65.654;21.944;2023-04-25T15:58:48;1.83;;;1.40;;
12675;SDS011;63820;65.654;21.944;2023-04-25T16:01:32;2.13;;;1.50;;
12675;SDS011;63820;65.654;21.944;2023-04-25T16:04:17;2.17;;;1.57;;
12675;SDS011;63820;65.654;21.944;2023-04-25T16:07:01;1.63;;;1.40;;
12675;SDS011;63820;65.654;21.944;2023-04-25T16:09:46;3.00;;;1.60;;
12675;SDS011;63820;65.654;21.944;2023-04-25T16:12:31;1.50;;;1.40;;
12675;SDS011;63820;65.654;21.944;2023-04-25T16:15:15;1.43;;;1.27;;
12675;SDS011;63820;65.654;21.944;2023-04-25T16:18:00;2.03;;;1.80;;
12675;SDS011;63820;65.654;21.944;2023-04-25T16:20:44;3.50;;;1.90;;
12675;SDS011;63820;65.654;21.944;2023-04-25T16:23:28;2.23;;;1.87;;
12675;SDS011;63820;65.654;21.944;2023-04-25T16:26:13;2.90;;;1.70;;